createdAt,value
2022-08-08T00:00:55.026Z,14.80
2022-08-08T00:02:30.879Z,14.80
2022-08-08T00:05:43.946Z,14.70
2022-08-08T00:08:29.431Z,14.60
2022-08-08T00:11:07.832Z,14.50
2022-08-08T00:14:15.188Z,14.40
2022-08-08T00:16:46.847Z,14.40
2022-08-08T00:19:55.213Z,14.40
2022-08-08T00:22:50.093Z,14.40
2022-08-08T00:25:28.654Z,14.30
2022-08-08T00:28:35.817Z,14.30
2022-08-08T00:32:29.010Z,14.20
2022-08-08T00:35:07.229Z,14.20
2022-08-08T00:38:02.304Z,14.20
2022-08-08T00:41:09.555Z,14.20
2022-08-08T00:43:40.096Z,14.00
2022-08-08T00:46:57.014Z,14.00
2022-08-08T00:50:09.251Z,14.00
2022-08-08T00:53:18.717Z,13.90
2022-08-08T00:56:12.963Z,13.90
2022-08-08T00:59:44.606Z,13.90
2022-08-08T01:03:57.404Z,13.80
2022-08-08T01:06:05.022Z,13.80
2022-08-08T01:08:59.124Z,13.70
2022-08-08T01:11:55.093Z,13.70
2022-08-08T01:15:06.785Z,13.70
2022-08-08T01:18:16.352Z,13.60
2022-08-08T01:22:01.699Z,13.60
2022-08-08T01:24:53.702Z,13.50
2022-08-08T01:27:33.316Z,13.50
2022-08-08T01:30:58.123Z,13.50
2022-08-08T01:34:01.163Z,13.30
2022-08-08T01:36:38.779Z,13.30
2022-08-08T01:39:23.708Z,13.20
2022-08-08T01:42:36.262Z,13.10
2022-08-08T01:45:30.135Z,13.10
2022-08-08T01:48:31.110Z,13.10
2022-08-08T01:51:32.184Z,13.00
2022-08-08T01:55:45.512Z,13.00
2022-08-08T01:58:11.950Z,13.00
2022-08-08T02:00:50.445Z,12.90
2022-08-08T02:03:55.259Z,12.90
2022-08-08T02:06:43.622Z,12.80
2022-08-08T02:10:02.773Z,12.70
2022-08-08T02:12:37.169Z,12.60
2022-08-08T02:15:17.659Z,12.50
2022-08-08T02:18:10.468Z,12.40
2022-08-08T02:21:17.858Z,12.40
2022-08-08T02:24:12.443Z,12.30
2022-08-08T02:27:02.267Z,12.30
2022-08-08T02:30:02.196Z,12.20
2022-08-08T02:33:09.711Z,12.10
2022-08-08T02:36:16.314Z,12.10
2022-08-08T02:38:50.628Z,12.10
2022-08-08T02:42:04.261Z,12.10
2022-08-08T02:44:56.433Z,12.00
2022-08-08T02:47:59.349Z,11.80
2022-08-08T02:50:52.802Z,11.70
2022-08-08T02:53:42.101Z,11.70
2022-08-08T02:56:33.933Z,11.70
2022-08-08T02:59:57.775Z,11.60
2022-08-08T03:02:53.438Z,11.50
2022-08-08T03:05:46.498Z,11.40
2022-08-08T03:08:26.753Z,11.40
2022-08-08T03:11:47.496Z,11.40
2022-08-08T03:15:56.985Z,11.40
2022-08-08T03:18:06.703Z,11.30
2022-08-08T03:20:51.667Z,11.30
2022-08-08T03:23:39.747Z,11.30
2022-08-08T03:26:16.631Z,11.30
2022-08-08T03:28:56.321Z,11.30
2022-08-08T03:32:06.163Z,11.20
2022-08-08T03:34:30.855Z,11.30
2022-08-08T03:36:58.573Z,11.30
2022-08-08T03:39:25.932Z,11.30
2022-08-08T03:42:28.407Z,11.30
2022-08-08T03:44:47.863Z,11.30
2022-08-08T03:47:22.042Z,11.20
2022-08-08T03:49:57.917Z,11.10
2022-08-08T03:52:33.945Z,11.00
2022-08-08T03:55:20.056Z,11.00
2022-08-08T03:58:35.218Z,11.00
2022-08-08T04:01:02.707Z,11.00
2022-08-08T04:03:57.351Z,11.00
2022-08-08T04:06:29.207Z,11.00
2022-08-08T04:09:10.429Z,11.00
2022-08-08T04:11:57.972Z,10.80
2022-08-08T04:14:34.268Z,10.90
2022-08-08T04:17:06.846Z,10.90
2022-08-08T04:19:43.219Z,10.80
2022-08-08T04:22:10.056Z,10.90
2022-08-08T04:24:40.176Z,10.90
2022-08-08T04:27:19.638Z,11.00
2022-08-08T04:30:17.368Z,10.90
2022-08-08T04:32:48.215Z,10.80
2022-08-08T04:35:22.382Z,10.80
2022-08-08T04:37:51.824Z,10.90
2022-08-08T04:41:36.799Z,10.90
2022-08-08T04:44:05.181Z,10.80
2022-08-08T04:46:32.739Z,10.80
2022-08-08T04:48:59.826Z,10.80
2022-08-08T04:51:54.916Z,10.90
2022-08-08T04:54:38.148Z,10.90
2022-08-08T04:57:01.944Z,11.00
2022-08-08T04:59:30.058Z,11.00
2022-08-08T05:01:59.447Z,11.10
2022-08-08T05:04:27.956Z,11.20
2022-08-08T05:06:55.604Z,11.30
2022-08-08T05:09:23.083Z,11.40
2022-08-08T05:11:56.599Z,11.40
2022-08-08T05:14:25.672Z,11.50
2022-08-08T05:17:01.236Z,11.60
2022-08-08T05:20:09.884Z,11.70
2022-08-08T05:22:22.076Z,11.70
2022-08-08T05:24:50.995Z,11.70
2022-08-08T05:27:22.619Z,11.80
2022-08-08T05:29:52.472Z,11.90
2022-08-08T05:32:27.237Z,11.90
2022-08-08T05:35:04.499Z,12.00
2022-08-08T05:37:49.372Z,12.10
2022-08-08T05:40:27.900Z,12.20
2022-08-08T05:43:17.166Z,12.20
2022-08-08T05:46:03.714Z,12.30
2022-08-08T05:48:34.571Z,12.50
2022-08-08T05:51:12.907Z,12.60
2022-08-08T05:54:24.129Z,12.70
2022-08-08T05:56:42.421Z,12.70
2022-08-08T05:59:59.729Z,12.90
2022-08-08T06:02:44.128Z,13.00
2022-08-08T06:05:34.896Z,13.10
2022-08-08T06:08:33.345Z,13.20
2022-08-08T06:11:00.383Z,13.40
2022-08-08T06:13:36.215Z,13.50
2022-08-08T06:16:15.609Z,13.70
2022-08-08T06:19:02.005Z,13.90
2022-08-08T06:21:51.924Z,14.00
2022-08-08T06:24:30.510Z,14.10
2022-08-08T06:27:05.661Z,14.30
2022-08-08T06:29:59.476Z,14.40
2022-08-08T06:32:30.913Z,14.60
2022-08-08T06:36:04.349Z,14.80
2022-08-08T06:38:02.856Z,14.90
2022-08-08T06:40:32.333Z,15.00
2022-08-08T06:43:09.785Z,15.10
2022-08-08T06:45:51.227Z,15.30
2022-08-08T06:48:19.623Z,15.30
2022-08-08T06:50:49.587Z,15.40
2022-08-08T06:53:20.850Z,15.60
2022-08-08T06:56:02.788Z,15.70
2022-08-08T06:58:34.206Z,15.80
2022-08-08T07:01:24.464Z,16.00
2022-08-08T07:04:37.800Z,16.20
2022-08-08T07:06:56.694Z,16.30
2022-08-08T07:09:45.456Z,16.50
2022-08-08T07:12:47.687Z,16.70
2022-08-08T07:16:05.286Z,17.00
2022-08-08T07:19:11.764Z,17.10
2022-08-08T07:22:05.341Z,17.20
2022-08-08T07:25:07.097Z,17.30
2022-08-08T07:28:02.514Z,17.30
2022-08-08T07:30:35.200Z,17.50
2022-08-08T07:33:03.118Z,17.80
2022-08-08T07:35:35.542Z,18.00
2022-08-08T07:38:18.223Z,18.10
2022-08-08T07:41:04.411Z,18.20
2022-08-08T07:43:38.002Z,18.30
2022-08-08T07:46:23.105Z,18.40
2022-08-08T07:49:00.943Z,18.50
2022-08-08T07:51:44.913Z,18.70
2022-08-08T07:54:30.679Z,18.70
2022-08-08T07:57:03.867Z,18.80
2022-08-08T08:00:03.272Z,19.00
2022-08-08T08:02:44.744Z,19.20
2022-08-08T08:05:32.957Z,19.20
2022-08-08T08:08:20.488Z,19.40
2022-08-08T08:10:56.751Z,19.50
2022-08-08T08:14:05.915Z,19.50
2022-08-08T08:16:19.362Z,19.60
2022-08-08T08:19:00.073Z,19.70
2022-08-08T08:21:52.284Z,19.70
2022-08-08T08:24:54.206Z,19.80
2022-08-08T08:27:24.539Z,19.80
2022-08-08T08:29:57.506Z,19.80
2022-08-08T08:32:36.455Z,19.80
2022-08-08T08:35:08.711Z,19.90
2022-08-08T08:37:58.929Z,20.00
2022-08-08T08:40:26.841Z,20.10
2022-08-08T08:42:55.841Z,20.20
2022-08-08T08:45:24.438Z,20.40
2022-08-08T08:47:58.585Z,20.40
2022-08-08T08:50:34.469Z,20.60
2022-08-08T08:53:27.651Z,20.60
2022-08-08T08:56:01.353Z,20.80
2022-08-08T08:58:42.136Z,20.70
2022-08-08T09:01:17.840Z,20.90
2022-08-08T09:03:51.420Z,20.90
2022-08-08T09:06:33.562Z,21.00
2022-08-08T09:09:35.562Z,21.10
2022-08-08T09:12:14.982Z,21.10
2022-08-08T09:14:45.133Z,21.10
2022-08-08T09:17:19.182Z,21.00
2022-08-08T09:21:56.003Z,21.10
2022-08-08T09:22:46.348Z,21.30
2022-08-08T09:25:15.378Z,21.50
2022-08-08T09:27:58.003Z,21.60
2022-08-08T09:30:29.635Z,21.60
2022-08-08T09:33:53.963Z,21.60
2022-08-08T09:35:48.928Z,21.80
2022-08-08T09:38:53.200Z,22.00
2022-08-08T09:41:33.378Z,22.00
2022-08-08T09:44:29.848Z,22.00
2022-08-08T09:48:02.136Z,21.90
2022-08-08T09:49:56.207Z,22.10
2022-08-08T09:52:56.537Z,22.20
2022-08-08T09:55:51.844Z,22.20
2022-08-08T09:58:20.244Z,22.20
2022-08-08T10:00:57.553Z,22.30
2022-08-08T10:03:31.535Z,22.30
2022-08-08T10:05:58.869Z,22.30
2022-08-08T10:08:30.657Z,22.40
2022-08-08T10:11:01.934Z,22.40
2022-08-08T10:14:00.057Z,22.50
2022-08-08T10:16:43.354Z,22.60
2022-08-08T10:19:13.712Z,22.70
2022-08-08T10:21:42.671Z,22.70
2022-08-08T10:24:29.696Z,22.70
2022-08-08T10:27:01.650Z,22.70
2022-08-08T10:29:56.941Z,22.80
2022-08-08T10:32:37.725Z,22.90
2022-08-08T10:35:10.502Z,22.80
2022-08-08T10:37:41.561Z,23.10
2022-08-08T10:40:16.457Z,23.10
2022-08-08T10:42:45.202Z,23.00
2022-08-08T10:45:15.753Z,22.80
2022-08-08T10:47:48.447Z,22.70
2022-08-08T10:50:23.619Z,22.80
2022-08-08T10:52:51.428Z,23.30
2022-08-08T10:55:39.941Z,23.70
2022-08-08T10:58:11.860Z,23.90
2022-08-08T11:00:53.337Z,24.10
2022-08-08T11:04:01.508Z,24.30
2022-08-08T11:06:34.563Z,24.70
2022-08-08T11:09:15.253Z,25.10
2022-08-08T11:12:05.132Z,25.20
2022-08-08T11:14:35.376Z,25.20
2022-08-08T11:17:04.083Z,25.30
2022-08-08T11:19:33.597Z,25.10
2022-08-08T11:22:04.025Z,24.70
2022-08-08T11:24:35.595Z,24.10
2022-08-08T11:27:10.627Z,23.80
2022-08-08T11:30:04.345Z,23.70
2022-08-08T11:32:47.401Z,23.70
2022-08-08T11:35:24.904Z,24.00
2022-08-08T11:38:38.608Z,24.10
2022-08-08T11:40:52.676Z,24.10
2022-08-08T11:43:23.823Z,24.20
2022-08-08T11:46:09.555Z,24.40
2022-08-08T11:48:39.354Z,24.60
2022-08-08T11:51:39.201Z,25.20
2022-08-08T11:53:59.014Z,25.20
2022-08-08T11:56:34.672Z,25.40
2022-08-08T11:59:09.742Z,25.50
2022-08-08T12:01:37.787Z,25.40
2022-08-08T12:04:06.930Z,25.30
2022-08-08T12:06:33.998Z,25.40
2022-08-08T12:09:17.397Z,25.60
2022-08-08T12:11:46.118Z,25.90
2022-08-08T12:14:29.046Z,25.80
2022-08-08T12:16:57.126Z,26.00
2022-08-08T12:19:37.415Z,26.10
2022-08-08T12:22:20.826Z,26.40
2022-08-08T12:25:01.115Z,26.80
2022-08-08T12:27:45.089Z,26.70
2022-08-08T12:30:18.549Z,26.20
2022-08-08T12:32:51.736Z,26.20
2022-08-08T12:35:23.018Z,26.50
2022-08-08T12:38:17.700Z,26.90
2022-08-08T12:40:57.235Z,26.70
2022-08-08T12:43:43.597Z,26.80
2022-08-08T12:46:25.133Z,26.40
2022-08-08T12:49:25.384Z,26.10
2022-08-08T12:51:58.555Z,25.70
2022-08-08T12:54:38.525Z,25.90
2022-08-08T12:57:24.311Z,26.10
2022-08-08T13:00:04.685Z,26.00
2022-08-08T13:02:53.151Z,26.00
2022-08-08T13:05:26.314Z,25.70
2022-08-08T13:08:16.758Z,25.60
2022-08-08T13:10:55.417Z,25.70
2022-08-08T13:13:35.470Z,25.70
2022-08-08T13:16:19.156Z,25.50
2022-08-08T13:18:57.554Z,25.60
2022-08-08T13:21:53.229Z,25.70
2022-08-08T13:24:18.651Z,25.90
2022-08-08T13:27:06.064Z,26.10
2022-08-08T13:30:01.540Z,26.20
2022-08-08T13:32:35.843Z,26.20
2022-08-08T13:35:04.843Z,26.50
2022-08-08T13:38:04.618Z,26.20
2022-08-08T13:40:28.129Z,26.20
2022-08-08T13:42:55.556Z,26.60
2022-08-08T13:45:24.297Z,26.50
2022-08-08T13:48:02.107Z,26.00
2022-08-08T13:50:44.022Z,25.60
2022-08-08T13:53:33.773Z,25.70
2022-08-08T13:56:07.090Z,25.60
2022-08-08T13:58:57.291Z,25.60
2022-08-08T14:01:33.041Z,25.60
2022-08-08T14:04:21.143Z,25.50
2022-08-08T14:06:48.674Z,25.40
2022-08-08T14:09:25.405Z,25.40
2022-08-08T14:12:00.645Z,25.30
2022-08-08T14:14:39.547Z,25.60
2022-08-08T14:17:08.055Z,25.60
2022-08-08T14:19:57.127Z,25.60
2022-08-08T14:22:37.530Z,26.10
2022-08-08T14:25:17.565Z,26.20
2022-08-08T14:28:00.141Z,25.90
2022-08-08T14:30:34.353Z,25.70
2022-08-08T14:33:01.611Z,25.80
2022-08-08T14:35:36.186Z,25.90
2022-08-08T14:38:34.722Z,26.20
2022-08-08T14:40:59.521Z,26.40
2022-08-08T14:44:01.715Z,26.50
2022-08-08T14:46:32.800Z,26.40
2022-08-08T14:49:09.453Z,26.70
2022-08-08T14:51:51.880Z,26.80
2022-08-08T14:54:28.666Z,27.00
2022-08-08T14:56:58.102Z,26.90
2022-08-08T14:59:43.793Z,26.80
2022-08-08T15:02:14.196Z,27.00
2022-08-08T15:04:43.134Z,27.00
2022-08-08T15:07:24.102Z,27.30
2022-08-08T15:09:52.714Z,27.70
2022-08-08T15:12:27.219Z,28.10
2022-08-08T15:14:55.063Z,28.10
2022-08-08T15:17:23.626Z,28.20
2022-08-08T15:19:51.641Z,28.20
2022-08-08T15:22:34.001Z,28.10
2022-08-08T15:25:01.318Z,28.00
2022-08-08T15:28:04.616Z,27.70
2022-08-08T15:30:15.194Z,27.40
2022-08-08T15:32:43.177Z,27.40
2022-08-08T15:35:10.921Z,27.60
2022-08-08T15:37:38.505Z,27.90
2022-08-08T15:40:11.260Z,27.70
2022-08-08T15:42:47.446Z,27.80
2022-08-08T15:45:17.654Z,27.70
2022-08-08T15:48:11.111Z,27.70
2022-08-08T15:50:57.019Z,27.50
2022-08-08T15:53:33.114Z,27.40
2022-08-08T15:56:12.894Z,27.40
2022-08-08T15:58:48.372Z,27.40
2022-08-08T16:01:16.266Z,27.40
2022-08-08T16:03:43.149Z,27.40
2022-08-08T16:06:14.952Z,27.60
2022-08-08T16:13:00.628Z,27.60
2022-08-08T16:13:10.084Z,27.50
2022-08-08T16:14:33.823Z,27.50
2022-08-08T16:17:01.411Z,27.50
2022-08-08T16:19:30.209Z,27.50
2022-08-08T16:22:30.498Z,27.50
2022-08-08T16:24:58.519Z,27.30
2022-08-08T16:27:25.390Z,27.10
2022-08-08T16:30:13.587Z,27.10
2022-08-08T16:32:40.681Z,26.90
2022-08-08T16:35:08.627Z,26.80
2022-08-08T16:37:35.489Z,26.80
2022-08-08T16:40:04.116Z,26.80
2022-08-08T16:42:31.501Z,26.90
2022-08-08T16:45:02.550Z,26.80
2022-08-08T16:47:42.426Z,26.50
2022-08-08T16:50:13.996Z,26.40
2022-08-08T16:55:14.034Z,26.40
2022-08-08T16:55:54.376Z,26.60
2022-08-08T16:58:26.188Z,26.60
2022-08-08T17:00:54.600Z,26.60
2022-08-08T17:03:25.209Z,26.50
2022-08-08T17:06:35.727Z,26.40
2022-08-08T17:08:57.096Z,26.40
2022-08-08T17:11:28.115Z,26.60
2022-08-08T17:14:06.068Z,26.40
2022-08-08T17:16:57.069Z,26.40
2022-08-08T17:19:26.690Z,26.20
2022-08-08T17:21:54.518Z,26.30
2022-08-08T17:24:27.762Z,26.20
2022-08-08T17:26:57.778Z,26.10
2022-08-08T17:29:25.504Z,26.00
2022-08-08T17:31:52.834Z,25.90
2022-08-08T17:34:53.240Z,25.90
2022-08-08T17:37:12.675Z,25.80
2022-08-08T17:40:02.725Z,25.80
2022-08-08T17:42:26.550Z,25.60
2022-08-08T17:44:53.517Z,25.40
2022-08-08T17:47:24.302Z,25.40
2022-08-08T17:50:06.294Z,25.30
2022-08-08T17:52:35.349Z,25.10
2022-08-08T17:56:05.118Z,25.00
2022-08-08T17:57:53.473Z,24.90
2022-08-08T18:00:21.471Z,24.70
2022-08-08T18:03:07.856Z,24.60
2022-08-08T18:05:43.973Z,24.50
2022-08-08T18:08:38.005Z,24.50
2022-08-08T18:11:04.524Z,24.40
2022-08-08T18:13:34.944Z,24.30
2022-08-08T18:16:09.273Z,24.10
2022-08-08T18:18:42.464Z,24.00
2022-08-08T18:21:10.696Z,23.70
2022-08-08T18:23:52.985Z,23.60
2022-08-08T18:26:23.333Z,23.50
2022-08-08T18:28:55.499Z,23.50
2022-08-08T18:31:22.731Z,23.40
2022-08-08T18:34:11.125Z,23.20
2022-08-08T18:36:37.489Z,23.00
2022-08-08T18:39:06.058Z,22.70
2022-08-08T18:41:51.551Z,22.50
2022-08-08T18:44:19.683Z,22.50
2022-08-08T18:46:55.277Z,22.20
2022-08-08T18:49:32.324Z,22.10
2022-08-08T18:52:18.552Z,21.90
2022-08-08T18:54:59.186Z,21.80
2022-08-08T18:57:27.414Z,21.80
2022-08-08T19:00:00.736Z,21.60
2022-08-08T19:02:29.836Z,21.50
2022-08-08T19:04:56.886Z,21.40
2022-08-08T19:07:29.572Z,21.40
2022-08-08T19:10:14.875Z,21.30
2022-08-08T19:12:44.823Z,21.20
2022-08-08T19:15:23.532Z,21.00
2022-08-08T19:18:32.407Z,20.90
2022-08-08T19:20:39.634Z,20.80
2022-08-08T19:23:10.833Z,20.80
2022-08-08T19:26:19.898Z,20.70
2022-08-08T19:28:24.916Z,20.70
2022-08-08T19:31:04.222Z,20.40
2022-08-08T19:33:52.181Z,20.40
2022-08-08T19:36:27.448Z,20.30
2022-08-08T19:38:56.069Z,20.40
2022-08-08T19:41:27.613Z,20.20
2022-08-08T19:44:03.726Z,20.20
2022-08-08T19:46:39.561Z,20.20
2022-08-08T19:49:06.412Z,20.10
2022-08-08T19:51:41.611Z,20.10
2022-08-08T19:54:11.187Z,20.00
2022-08-08T19:56:40.431Z,20.00
2022-08-08T19:59:12.836Z,19.90
2022-08-08T20:02:01.066Z,19.80
2022-08-08T20:04:27.945Z,19.70
2022-08-08T20:06:56.689Z,19.70
2022-08-08T20:09:24.236Z,19.50
2022-08-08T20:11:52.238Z,19.50
2022-08-08T20:14:33.782Z,19.40
2022-08-08T20:17:01.928Z,19.20
2022-08-08T20:19:34.196Z,19.20
2022-08-08T20:22:13.081Z,19.20
2022-08-08T20:24:48.360Z,19.20
2022-08-08T20:27:20.322Z,19.20
2022-08-08T20:30:01.044Z,19.00
2022-08-08T20:32:29.939Z,19.00
2022-08-08T20:35:01.443Z,18.90
2022-08-08T20:37:47.187Z,18.90
2022-08-08T20:40:17.383Z,18.80
2022-08-08T20:42:55.187Z,18.80
2022-08-08T20:45:34.262Z,18.70
2022-08-08T20:48:09.710Z,18.60
2022-08-08T20:50:36.949Z,18.60
2022-08-08T20:53:06.834Z,18.60
2022-08-08T20:55:45.254Z,18.60
2022-08-08T20:58:23.226Z,18.60
2022-08-08T21:00:50.440Z,18.50
2022-08-08T21:03:17.475Z,18.50
2022-08-08T21:05:58.474Z,18.40
2022-08-08T21:08:37.430Z,18.20
2022-08-08T21:11:13.155Z,18.20
2022-08-08T21:13:42.747Z,18.10
2022-08-08T21:16:20.258Z,17.90
2022-08-08T21:18:57.302Z,17.90
2022-08-08T21:21:39.769Z,17.80
2022-08-08T21:24:22.251Z,17.80
2022-08-08T21:26:56.440Z,17.80
2022-08-08T21:30:05.872Z,17.80
2022-08-08T21:32:14.276Z,17.80
2022-08-08T21:34:51.842Z,17.70
2022-08-08T21:37:54.831Z,17.60
2022-08-08T21:40:11.589Z,17.60
2022-08-08T21:42:39.786Z,17.50
2022-08-08T21:45:44.502Z,17.50
2022-08-08T21:48:19.635Z,17.50
2022-08-08T21:50:43.083Z,17.40
2022-08-08T21:54:30.979Z,17.30
2022-08-08T21:56:19.799Z,17.30
2022-08-08T21:58:44.663Z,17.30
2022-08-08T22:01:27.885Z,17.20
2022-08-08T22:04:07.025Z,17.10
2022-08-08T22:06:39.497Z,17.10
2022-08-08T22:09:08.145Z,17.00
2022-08-08T22:11:59.249Z,16.90
2022-08-08T22:14:23.897Z,16.90
2022-08-08T22:16:54.288Z,16.80
2022-08-08T22:19:23.643Z,16.90
2022-08-08T22:21:52.858Z,16.90
2022-08-08T22:24:28.090Z,16.90
2022-08-08T22:27:03.354Z,16.80
2022-08-08T22:30:00.958Z,16.80
2022-08-08T22:32:20.436Z,16.70
2022-08-08T22:34:51.063Z,16.60
2022-08-08T22:37:48.625Z,16.60
2022-08-08T22:40:16.939Z,16.50
2022-08-08T22:42:45.527Z,16.40
2022-08-08T22:45:15.505Z,16.50
2022-08-08T22:47:49.082Z,16.30
2022-08-08T22:50:27.522Z,16.30
2022-08-08T22:54:29.717Z,16.30
2022-08-08T22:55:59.191Z,16.20
2022-08-08T22:58:34.130Z,16.20
2022-08-08T23:02:00.732Z,16.30
2022-08-08T23:03:53.362Z,16.20
2022-08-08T23:06:22.160Z,16.20
2022-08-08T23:08:55.737Z,16.20
2022-08-08T23:11:30.916Z,16.10
2022-08-08T23:14:19.594Z,16.00
2022-08-08T23:16:54.538Z,16.10
2022-08-08T23:19:30.606Z,16.10
2022-08-08T23:22:04.475Z,16.10
2022-08-08T23:24:36.139Z,16.00
2022-08-08T23:27:07.825Z,15.90
2022-08-08T23:29:35.330Z,15.80
2022-08-08T23:32:04.519Z,15.80
2022-08-08T23:34:32.287Z,15.70
2022-08-08T23:37:02.718Z,15.70
2022-08-08T23:39:42.187Z,15.70
2022-08-08T23:42:22.166Z,15.70
2022-08-08T23:44:49.477Z,15.70
2022-08-08T23:49:04.028Z,15.70
2022-08-08T23:50:05.712Z,15.70
2022-08-08T23:52:33.598Z,15.60
2022-08-08T23:55:14.150Z,15.60
2022-08-08T23:57:52.703Z,15.70
